sensor_id;sensor_type;location;lat;lon;timestamp;pressure;altitude;pressure_sealevel;temperature;humidity
76687;BME280;65615;47.378;19.344;2023-08-30T04:35:31;99088.53;;;15.73;100.00
76687;BME280;65615;47.378;19.344;2023-08-30T04:39:35;99080.69;;;16.21;100.00
76687;BME280;65615;47.378;19.344;2023-08-30T04:43:38;99082.97;;;16.35;100.00
76687;BME280;65615;47.378;19.344;2023-08-30T04:47:41;99083.12;;;16.40;100.00
76687;BME280;65615;47.378;19.344;2023-08-30T04:51:46;99081.34;;;16.52;100.00
76687;BME280;65615;47.378;19.344;2023-08-30T04:55:49;99093.66;;;16.53;100.00
76687;BME280;65615;47.378;19.344;2023-08-30T04:59:51;99095.13;;;16.67;100.00
76687;BME280;65615;47.378;19.344;2023-08-30T05:03:55;99094.37;;;16.60;100.00
76687;BME280;65615;47.378;19.344;2023-08-30T05:07:58;99094.25;;;16.55;100.00
76687;BME280;65615;47.378;19.344;2023-08-30T05:12:01;99092.31;;;16.62;100.00
76687;BME280;65615;47.378;19.344;2023-08-30T05:16:05;99091.88;;;16.65;100.00
76687;BME280;65615;47.378;19.344;2023-08-30T05:20:08;99101.19;;;16.74;100.00
76687;BME280;65615;47.378;19.344;2023-08-30T05:24:12;99097.72;;;16.85;100.00
76687;BME280;65615;47.378;19.344;2023-08-30T05:28:15;99108.69;;;16.95;100.00
76687;BME280;65615;47.378;19.344;2023-08-30T05:32:18;99109.00;;;16.87;100.00
76687;BME280;65615;47.378;19.344;2023-08-30T05:36:21;99115.19;;;16.99;100.00
76687;BME280;65615;47.378;19.344;2023-08-30T05:40:24;99122.34;;;17.17;100.00
76687;BME280;65615;47.378;19.344;2023-08-30T05:44:27;99122.50;;;17.34;100.00
76687;BME280;65615;47.378;19.344;2023-08-30T05:48:31;99123.09;;;17.36;100.00
76687;BME280;65615;47.378;19.344;2023-08-30T05:52:34;99124.13;;;17.35;100.00
76687;BME280;65615;47.378;19.344;2023-08-30T05:56:37;99122.47;;;17.52;100.00
76687;BME280;65615;47.378;19.344;2023-08-30T06:00:41;99126.34;;;17.67;100.00
76687;BME280;65615;47.378;19.344;2023-08-30T06:04:44;99134.13;;;17.80;100.00
76687;BME280;65615;47.378;19.344;2023-08-30T06:08:47;99139.25;;;17.94;100.00
76687;BME280;65615;47.378;19.344;2023-08-30T06:12:50;99131.09;;;18.00;100.00
76687;BME280;65615;47.378;19.344;2023-08-30T06:16:53;99124.81;;;18.18;100.00
76687;BME280;65615;47.378;19.344;2023-08-30T06:20:56;99124.47;;;18.37;100.00
76687;BME280;65615;47.378;19.344;2023-08-30T06:25:00;99134.69;;;18.40;100.00
76687;BME280;65615;47.378;19.344;2023-08-30T06:29:03;99124.56;;;18.42;100.00
76687;BME280;65615;47.378;19.344;2023-08-30T06:33:07;99124.19;;;18.62;100.00
76687;BME280;65615;47.378;19.344;2023-08-30T06:37:13;99135.09;;;18.72;100.00
76687;BME280;65615;47.378;19.344;2023-08-30T06:41:16;99129.75;;;18.84;100.00
76687;BME280;65615;47.378;19.344;2023-08-30T06:45:19;99131.84;;;19.10;100.00
76687;BME280;65615;47.378;19.344;2023-08-30T06:49:23;99126.41;;;19.33;100.00
76687;BME280;65615;47.378;19.344;2023-08-30T06:53:32;99135.09;;;19.40;100.00
76687;BME280;65615;47.378;19.344;2023-08-30T06:57:38;99133.66;;;19.49;100.00
76687;BME280;65615;47.378;19.344;2023-08-30T07:01:41;99136.09;;;19.67;100.00
76687;BME280;65615;47.378;19.344;2023-08-30T07:05:44;99141.84;;;19.59;100.00
76687;BME280;65615;47.378;19.344;2023-08-30T07:09:47;99141.28;;;19.90;100.00
76687;BME280;65615;47.378;19.344;2023-08-30T07:13:50;99138.69;;;19.95;100.00
76687;BME280;65615;47.378;19.344;2023-08-30T07:17:55;99135.94;;;19.57;100.00
76687;BME280;65615;47.378;19.344;2023-08-30T07:22:01;99135.13;;;19.90;100.00
76687;BME280;65615;47.378;19.344;2023-08-30T07:26:04;99146.34;;;20.20;100.00
76687;BME280;65615;47.378;19.344;2023-08-30T07:30:07;99145.66;;;19.96;100.00
76687;BME280;65615;47.378;19.344;2023-08-30T07:34:11;99149.22;;;20.18;100.00
76687;BME280;65615;47.378;19.344;2023-08-30T07:38:15;99144.22;;;20.22;100.00
76687;BME280;65615;47.378;19.344;2023-08-30T07:47:18;99147.63;;;20.77;100.00
76687;BME280;65615;47.378;19.344;2023-08-30T07:51:21;99149.25;;;21.48;100.00
76687;BME280;65615;47.378;19.344;2023-08-30T07:55:24;99158.16;;;21.80;100.00
76687;BME280;65615;47.378;19.344;2023-08-30T07:59:27;99165.03;;;21.98;100.00
76687;BME280;65615;47.378;19.344;2023-08-30T08:03:36;99160.91;;;22.69;100.00
76687;BME280;65615;47.378;19.344;2023-08-30T08:08:08;99163.22;;;22.50;100.00
76687;BME280;65615;47.378;19.344;2023-08-30T08:12:13;99164.72;;;21.94;100.00
76687;BME280;65615;47.378;19.344;2023-08-30T08:16:18;99160.31;;;21.25;100.00
76687;BME280;65615;47.378;19.344;2023-08-30T08:20:22;99155.87;;;21.99;100.00
76687;BME280;65615;47.378;19.344;2023-08-30T08:24:25;99161.22;;;22.72;100.00
76687;BME280;65615;47.378;19.344;2023-08-30T08:28:28;99169.87;;;22.38;100.00
76687;BME280;65615;47.378;19.344;2023-08-30T08:32:32;99167.47;;;21.99;100.00
76687;BME280;65615;47.378;19.344;2023-08-30T08:36:39;99175.31;;;21.74;100.00
76687;BME280;65615;47.378;19.344;2023-08-30T08:40:44;99189.56;;;22.43;100.00
76687;BME280;65615;47.378;19.344;2023-08-30T08:44:49;99178.13;;;23.30;100.00
76687;BME280;65615;47.378;19.344;2023-08-30T08:48:53;99190.97;;;23.08;100.00
76687;BME280;65615;47.378;19.344;2023-08-30T08:52:57;99183.72;;;23.13;100.00
76687;BME280;65615;47.378;19.344;2023-08-30T08:57:02;99185.00;;;22.44;100.00
76687;BME280;65615;47.378;19.344;2023-08-30T09:01:05;99197.88;;;23.50;100.00
76687;BME280;65615;47.378;19.344;2023-08-30T09:05:18;99189.06;;;23.03;100.00
76687;BME280;65615;47.378;19.344;2023-08-30T09:09:21;99183.69;;;23.03;100.00
76687;BME280;65615;47.378;19.344;2023-08-30T09:13:26;99195.56;;;23.02;100.00
76687;BME280;65615;47.378;19.344;2023-08-30T09:18:00;99196.25;;;23.44;100.00
76687;BME280;65615;47.378;19.344;2023-08-30T09:22:04;99198.41;;;23.52;100.00
76687;BME280;65615;47.378;19.344;2023-08-30T09:26:07;99202.22;;;24.02;100.00
76687;BME280;65615;47.378;19.344;2023-08-30T09:30:14;99196.56;;;23.78;100.00
76687;BME280;65615;47.378;19.344;2023-08-30T09:34:27;99216.78;;;23.60;100.00
76687;BME280;65615;47.378;19.344;2023-08-30T09:38:31;99214.22;;;23.29;100.00
76687;BME280;65615;47.378;19.344;2023-08-30T09:42:41;99216.34;;;22.60;100.00
76687;BME280;65615;47.378;19.344;2023-08-30T09:46:54;99212.69;;;22.81;100.00
76687;BME280;65615;47.378;19.344;2023-08-30T09:51:00;99204.00;;;21.95;100.00
76687;BME280;65615;47.378;19.344;2023-08-30T09:55:06;99208.13;;;21.76;100.00
76687;BME280;65615;47.378;19.344;2023-08-30T09:59:14;99213.12;;;22.63;100.00
76687;BME280;65615;47.378;19.344;2023-08-30T10:03:20;99205.41;;;22.40;100.00
76687;BME280;65615;47.378;19.344;2023-08-30T10:07:33;99218.09;;;22.44;100.00
76687;BME280;65615;47.378;19.344;2023-08-30T10:11:38;99220.47;;;22.77;100.00
76687;BME280;65615;47.378;19.344;2023-08-30T10:15:44;99219.25;;;23.05;100.00
76687;BME280;65615;47.378;19.344;2023-08-30T10:19:49;99221.66;;;22.55;100.00
76687;BME280;65615;47.378;19.344;2023-08-30T10:23:56;99222.16;;;22.10;100.00
76687;BME280;65615;47.378;19.344;2023-08-30T10:28:01;99227.94;;;21.97;100.00
76687;BME280;65615;47.378;19.344;2023-08-30T10:32:05;99219.84;;;21.65;100.00
76687;BME280;65615;47.378;19.344;2023-08-30T10:36:09;99220.47;;;21.72;100.00
76687;BME280;65615;47.378;19.344;2023-08-30T10:40:12;99217.56;;;22.11;100.00
76687;BME280;65615;47.378;19.344;2023-08-30T10:44:16;99226.19;;;22.13;100.00
76687;BME280;65615;47.378;19.344;2023-08-30T10:48:34;99231.50;;;22.02;100.00
76687;BME280;65615;47.378;19.344;2023-08-30T10:52:37;99230.13;;;21.73;100.00
76687;BME280;65615;47.378;19.344;2023-08-30T10:56:48;99227.38;;;22.27;100.00
76687;BME280;65615;47.378;19.344;2023-08-30T11:00:51;99226.41;;;22.79;100.00
76687;BME280;65615;47.378;19.344;2023-08-30T11:04:54;99213.06;;;21.84;100.00
76687;BME280;65615;47.378;19.344;2023-08-30T11:08:57;99207.47;;;21.64;100.00
76687;BME280;65615;47.378;19.344;2023-08-30T11:13:00;99217.66;;;23.04;100.00
76687;BME280;65615;47.378;19.344;2023-08-30T11:17:03;99214.03;;;22.78;100.00
76687;BME280;65615;47.378;19.344;2023-08-30T11:21:06;99219.06;;;23.22;100.00
76687;BME280;65615;47.378;19.344;2023-08-30T11:25:11;99228.28;;;22.74;100.00
76687;BME280;65615;47.378;19.344;2023-08-30T11:29:15;99226.22;;;22.96;100.00
76687;BME280;65615;47.378;19.344;2023-08-30T11:33:17;99221.31;;;22.41;100.00
76687;BME280;65615;47.378;19.344;2023-08-30T11:37:22;99213.91;;;23.15;100.00
76687;BME280;65615;47.378;19.344;2023-08-30T11:41:25;99216.81;;;23.91;100.00
76687;BME280;65615;47.378;19.344;2023-08-30T11:45:32;99227.59;;;24.46;100.00
76687;BME280;65615;47.378;19.344;2023-08-30T11:49:37;99224.41;;;24.09;93.65
76687;BME280;65615;47.378;19.344;2023-08-30T11:53:44;99233.50;;;23.67;97.35
76687;BME280;65615;47.378;19.344;2023-08-30T11:57:50;99235.91;;;23.54;97.85
76687;BME280;65615;47.378;19.344;2023-08-30T12:02:07;99229.47;;;22.98;100.00
76687;BME280;65615;47.378;19.344;2023-08-30T12:06:13;99221.59;;;23.53;98.76
76687;BME280;65615;47.378;19.344;2023-08-30T12:10:17;99232.63;;;22.80;100.00
76687;BME280;65615;47.378;19.344;2023-08-30T12:14:33;99227.16;;;23.22;98.09
76687;BME280;65615;47.378;19.344;2023-08-30T12:18:36;99229.53;;;23.08;100.00
76687;BME280;65615;47.378;19.344;2023-08-30T12:22:39;99225.97;;;22.56;100.00
76687;BME280;65615;47.378;19.344;2023-08-30T12:26:43;99213.88;;;24.12;94.90
76687;BME280;65615;47.378;19.344;2023-08-30T12:30:47;99219.97;;;24.83;90.04
76687;BME280;65615;47.378;19.344;2023-08-30T12:34:51;99202.47;;;25.29;86.48
76687;BME280;65615;47.378;19.344;2023-08-30T12:38:54;99197.06;;;25.35;84.04
76687;BME280;65615;47.378;19.344;2023-08-30T12:42:57;99198.72;;;24.01;90.38
76687;BME280;65615;47.378;19.344;2023-08-30T12:47:00;99189.03;;;24.30;88.71
76687;BME280;65615;47.378;19.344;2023-08-30T12:51:04;99180.31;;;25.27;86.77
76687;BME280;65615;47.378;19.344;2023-08-30T12:55:07;99174.91;;;24.54;83.93
76687;BME280;65615;47.378;19.344;2023-08-30T12:59:12;99176.72;;;24.93;83.93
76687;BME280;65615;47.378;19.344;2023-08-30T13:03:15;99171.63;;;25.41;81.92
76687;BME280;65615;47.378;19.344;2023-08-30T13:07:18;99178.91;;;24.81;84.66
76687;BME280;65615;47.378;19.344;2023-08-30T13:11:21;99168.03;;;25.01;83.71
76687;BME280;65615;47.378;19.344;2023-08-30T13:15:24;99179.69;;;24.92;86.03
76687;BME280;65615;47.378;19.344;2023-08-30T13:19:27;99172.00;;;24.30;88.90
76687;BME280;65615;47.378;19.344;2023-08-30T13:23:30;99177.44;;;25.14;82.63
76687;BME280;65615;47.378;19.344;2023-08-30T13:27:33;99170.72;;;25.06;83.23
76687;BME280;65615;47.378;19.344;2023-08-30T13:31:35;99171.78;;;25.10;83.46
76687;BME280;65615;47.378;19.344;2023-08-30T13:35:39;99168.84;;;25.07;85.52
76687;BME280;65615;47.378;19.344;2023-08-30T13:39:42;99171.78;;;25.10;84.74
76687;BME280;65615;47.378;19.344;2023-08-30T13:43:45;99186.97;;;24.96;84.04
76687;BME280;65615;47.378;19.344;2023-08-30T13:47:48;99175.97;;;25.37;81.93
76687;BME280;65615;47.378;19.344;2023-08-30T13:51:56;99172.31;;;25.95;79.10
76687;BME280;65615;47.378;19.344;2023-08-30T13:55:59;99176.63;;;25.13;80.74
76687;BME280;65615;47.378;19.344;2023-08-30T14:00:04;99181.69;;;23.55;89.62
76687;BME280;65615;47.378;19.344;2023-08-30T14:04:13;99171.97;;;24.50;87.12
76687;BME280;65615;47.378;19.344;2023-08-30T14:08:18;99171.38;;;24.73;85.43
76687;BME280;65615;47.378;19.344;2023-08-30T14:12:24;99177.22;;;25.00;83.75
76687;BME280;65615;47.378;19.344;2023-08-30T14:16:27;99168.06;;;24.91;83.68
76687;BME280;65615;47.378;19.344;2023-08-30T14:20:31;99163.50;;;25.36;81.14
76687;BME280;65615;47.378;19.344;2023-08-30T14:24:35;99175.38;;;25.40;80.66
76687;BME280;65615;47.378;19.344;2023-08-30T14:28:53;99179.09;;;25.59;82.57
76687;BME280;65615;47.378;19.344;2023-08-30T14:32:56;99182.78;;;24.50;84.66
76687;BME280;65615;47.378;19.344;2023-08-30T14:36:59;99179.81;;;24.41;88.01
76687;BME280;65615;47.378;19.344;2023-08-30T14:41:02;99179.47;;;24.73;82.15
